createdAt,value
2024-02-21T00:00:49.413Z,5.33
2024-02-21T00:03:16.835Z,6.57
2024-02-21T00:05:43.754Z,5.60
2024-02-21T00:08:11.084Z,5.23
2024-02-21T00:10:38.056Z,5.60
2024-02-21T00:13:05.048Z,5.13
2024-02-21T00:15:32.138Z,4.63
2024-02-21T00:17:59.381Z,5.03
2024-02-21T00:20:27.173Z,6.00
2024-02-21T00:22:54.296Z,5.83
2024-02-21T00:25:21.353Z,4.63
2024-02-21T00:27:48.395Z,5.27
2024-02-21T00:30:15.677Z,5.33
2024-02-21T00:32:42.477Z,5.40
2024-02-21T00:35:09.700Z,4.93
2024-02-21T00:37:36.695Z,5.30
2024-02-21T00:40:04.076Z,4.87
2024-02-21T00:42:30.982Z,6.70
2024-02-21T00:44:57.803Z,4.73
2024-02-21T00:47:24.743Z,4.43
2024-02-21T00:49:51.724Z,4.50
2024-02-21T00:52:19.272Z,4.90
2024-02-21T00:54:50.905Z,5.50
2024-02-21T00:57:21.333Z,5.37
2024-02-21T00:59:48.107Z,4.40
2024-02-21T01:02:15.217Z,5.50
2024-02-21T01:04:42.294Z,5.43
2024-02-21T01:07:09.346Z,6.23
2024-02-21T01:09:36.204Z,5.63
2024-02-21T01:12:03.062Z,5.50
2024-02-21T01:14:29.891Z,5.47
2024-02-21T01:16:57.180Z,5.17
2024-02-21T01:19:24.583Z,5.60
2024-02-21T01:21:51.915Z,5.87
2024-02-21T01:24:18.925Z,5.67
2024-02-21T01:26:45.730Z,5.23
2024-02-21T01:29:12.638Z,6.13
2024-02-21T01:31:39.780Z,5.90
2024-02-21T01:34:06.976Z,5.97
2024-02-21T01:36:34.058Z,5.83
2024-02-21T01:39:00.958Z,5.00
2024-02-21T01:41:27.748Z,6.33
2024-02-21T01:43:54.692Z,6.23
2024-02-21T01:46:21.911Z,6.80
2024-02-21T01:48:48.948Z,7.20
2024-02-21T01:51:16.876Z,7.20
2024-02-21T01:53:47.552Z,6.77
2024-02-21T01:56:14.921Z,6.23
2024-02-21T01:58:43.659Z,6.43
2024-02-21T02:01:12.006Z,6.33
2024-02-21T02:03:39.549Z,5.67
2024-02-21T02:06:10.169Z,5.80
2024-02-21T02:08:38.566Z,6.13
2024-02-21T02:11:05.922Z,6.07
2024-02-21T02:13:32.983Z,6.53
2024-02-21T02:15:59.880Z,5.90
2024-02-21T02:18:27.739Z,6.13
2024-02-21T02:20:54.750Z,6.40
2024-02-21T02:23:35.535Z,5.50
2024-02-21T02:26:03.058Z,7.17
2024-02-21T02:28:30.196Z,7.37
2024-02-21T02:30:57.159Z,5.93
2024-02-21T02:33:24.161Z,5.07
2024-02-21T02:35:51.023Z,7.47
2024-02-21T02:38:17.943Z,7.13
2024-02-21T02:40:45.033Z,6.17
2024-02-21T02:43:12.448Z,7.30
2024-02-21T02:45:39.297Z,7.03
2024-02-21T02:48:06.613Z,7.17
2024-02-21T02:50:33.587Z,7.13
2024-02-21T02:53:00.629Z,7.50
2024-02-21T02:55:28.283Z,7.10
2024-02-21T02:57:55.824Z,7.13
2024-02-21T03:00:23.078Z,7.10
2024-02-21T03:02:51.444Z,7.53
2024-02-21T03:05:20.601Z,7.83
2024-02-21T03:07:48.997Z,6.73
2024-02-21T03:10:19.486Z,7.23
2024-02-21T03:12:47.301Z,7.43
2024-02-21T03:15:15.671Z,6.37
2024-02-21T03:17:43.165Z,5.83
2024-02-21T03:20:13.244Z,5.70
2024-02-21T03:22:41.592Z,6.07
2024-02-21T03:25:10.991Z,6.73
2024-02-21T03:27:38.143Z,6.60
2024-02-21T03:30:05.778Z,6.87
2024-02-21T03:32:33.200Z,6.83
2024-02-21T03:35:00.653Z,7.30
2024-02-21T03:37:28.038Z,7.03
2024-02-21T03:39:55.058Z,8.03
2024-02-21T03:42:22.226Z,7.33
2024-02-21T03:44:49.520Z,6.83
2024-02-21T03:47:16.775Z,7.77
2024-02-21T03:49:44.141Z,8.07
2024-02-21T03:52:11.702Z,7.20
2024-02-21T03:54:39.037Z,7.50
2024-02-21T03:57:07.583Z,7.27
2024-02-21T03:59:34.537Z,8.80
2024-02-21T04:02:01.860Z,8.57
2024-02-21T04:04:28.947Z,8.97
2024-02-21T04:06:56.064Z,9.30
2024-02-21T04:09:23.112Z,9.70
2024-02-21T04:11:50.023Z,9.50
2024-02-21T04:14:16.906Z,9.47
2024-02-21T04:16:44.145Z,10.23
2024-02-21T04:19:11.248Z,10.47
2024-02-21T04:21:38.337Z,11.73
2024-02-21T04:24:07.387Z,10.40
2024-02-21T04:26:35.380Z,10.50
2024-02-21T04:29:03.097Z,11.47
2024-02-21T04:31:33.637Z,11.63
2024-02-21T04:34:00.577Z,11.73
2024-02-21T04:36:27.415Z,11.63
2024-02-21T04:38:54.198Z,10.87
2024-02-21T04:41:21.080Z,9.93
2024-02-21T04:43:49.362Z,10.53
2024-02-21T04:46:17.184Z,9.33
2024-02-21T04:48:44.949Z,9.50
2024-02-21T04:51:13.231Z,9.17
2024-02-21T04:53:40.184Z,10.17
2024-02-21T04:56:07.768Z,10.10
2024-02-21T04:58:40.636Z,10.83
2024-02-21T05:01:09.128Z,10.90
2024-02-21T05:03:36.492Z,10.63
2024-02-21T05:06:03.544Z,11.47
2024-02-21T05:08:30.398Z,13.73
2024-02-21T05:10:57.566Z,11.90
2024-02-21T05:13:24.599Z,10.97
2024-02-21T05:15:51.526Z,13.33
2024-02-21T05:18:18.715Z,13.93
2024-02-21T05:20:45.656Z,12.60
2024-02-21T05:23:12.627Z,13.90
2024-02-21T05:25:39.807Z,13.13
2024-02-21T05:28:07.584Z,15.70
2024-02-21T05:30:34.805Z,14.13
2024-02-21T05:33:06.554Z,16.63
2024-02-21T05:35:33.833Z,16.17
2024-02-21T05:38:01.183Z,14.33
2024-02-21T05:40:28.179Z,13.63
2024-02-21T05:42:55.414Z,13.57
2024-02-21T05:45:22.487Z,14.30
2024-02-21T05:47:49.393Z,12.87
2024-02-21T05:50:18.474Z,13.27
2024-02-21T05:52:46.401Z,14.70
2024-02-21T05:55:13.236Z,12.87
2024-02-21T05:57:40.480Z,13.27
2024-02-21T06:00:08.039Z,12.83
2024-02-21T06:02:34.888Z,12.57
2024-02-21T06:05:02.345Z,14.33
2024-02-21T06:07:29.511Z,14.30
2024-02-21T06:09:56.425Z,15.37
2024-02-21T06:12:23.324Z,16.33
2024-02-21T06:14:50.422Z,16.80
2024-02-21T06:17:17.374Z,18.07
2024-02-21T06:19:45.387Z,17.53
2024-02-21T06:22:12.621Z,16.97
2024-02-21T06:24:40.109Z,15.80
2024-02-21T06:27:10.739Z,15.47
2024-02-21T06:29:38.634Z,15.83
2024-02-21T06:32:06.079Z,14.17
2024-02-21T06:34:34.996Z,15.13
2024-02-21T06:37:02.184Z,17.13
2024-02-21T06:39:30.403Z,17.40
2024-02-21T06:42:01.007Z,16.03
2024-02-21T06:44:30.409Z,16.87
2024-02-21T06:46:57.346Z,16.47
2024-02-21T06:49:24.522Z,17.33
2024-02-21T06:51:51.541Z,17.00
2024-02-21T06:54:18.328Z,18.47
2024-02-21T06:56:45.193Z,17.10
2024-02-21T06:59:12.500Z,17.70
2024-02-21T07:01:39.444Z,16.20
2024-02-21T07:04:06.579Z,15.93
2024-02-21T07:06:35.748Z,18.13
2024-02-21T07:09:03.007Z,16.73
2024-02-21T07:11:30.293Z,17.13
2024-02-21T07:13:57.310Z,17.53
2024-02-21T07:16:24.466Z,17.73
2024-02-21T07:18:51.637Z,16.27
2024-02-21T07:21:18.678Z,17.97
2024-02-21T07:23:45.502Z,17.03
2024-02-21T07:26:12.490Z,17.77
2024-02-21T07:28:39.673Z,17.03
2024-02-21T07:31:06.735Z,20.37
2024-02-21T07:33:33.940Z,19.00
2024-02-21T07:36:00.954Z,19.33
2024-02-21T07:38:27.841Z,18.73
2024-02-21T07:40:54.774Z,18.30
2024-02-21T07:43:23.535Z,18.37
2024-02-21T07:45:50.526Z,17.67
2024-02-21T07:48:17.447Z,18.47
2024-02-21T07:50:44.545Z,17.60
2024-02-21T07:53:11.789Z,18.07
2024-02-21T07:55:38.869Z,16.83
2024-02-21T07:58:05.964Z,16.87
2024-02-21T08:00:32.821Z,17.03
2024-02-21T08:03:00.014Z,17.77
2024-02-21T08:05:26.907Z,16.60
2024-02-21T08:07:57.649Z,16.83
2024-02-21T08:10:25.826Z,17.27
2024-02-21T08:12:52.853Z,16.80
2024-02-21T08:15:19.903Z,17.57
2024-02-21T08:17:46.859Z,16.57
2024-02-21T08:20:13.807Z,16.07
2024-02-21T08:22:40.870Z,18.60
2024-02-21T08:25:07.923Z,17.17
2024-02-21T08:27:35.573Z,16.53
2024-02-21T08:30:02.460Z,16.20
2024-02-21T08:32:30.581Z,16.63
2024-02-21T08:34:57.500Z,14.13
2024-02-21T08:37:25.632Z,14.67
2024-02-21T08:39:52.444Z,15.10
2024-02-21T08:42:19.206Z,16.43
2024-02-21T08:44:46.653Z,17.67
2024-02-21T08:47:14.206Z,14.67
2024-02-21T08:49:42.181Z,13.57
2024-02-21T08:52:09.186Z,14.07
2024-02-21T08:54:36.086Z,13.47
2024-02-21T08:57:03.029Z,13.50
2024-02-21T08:59:29.806Z,17.10
2024-02-21T09:01:56.733Z,13.70
2024-02-21T09:04:23.908Z,12.43
2024-02-21T09:06:50.908Z,14.23
2024-02-21T09:09:18.267Z,14.17
2024-02-21T09:11:45.143Z,13.67
2024-02-21T09:14:12.133Z,13.43
2024-02-21T09:16:39.081Z,13.03
2024-02-21T09:19:06.020Z,11.67
2024-02-21T09:21:32.862Z,10.97
2024-02-21T09:24:00.541Z,10.97
2024-02-21T09:26:28.147Z,11.93
2024-02-21T09:28:55.290Z,10.13
2024-02-21T09:31:22.626Z,10.87
2024-02-21T09:33:49.668Z,9.80
2024-02-21T09:36:16.929Z,9.30
2024-02-21T09:38:43.929Z,11.63
2024-02-21T09:41:22.782Z,10.17
2024-02-21T09:43:54.898Z,10.70
2024-02-21T09:46:31.090Z,9.90
2024-02-21T09:49:17.150Z,11.27
2024-02-21T09:51:46.167Z,11.93
2024-02-21T09:54:16.750Z,14.03
2024-02-21T09:56:48.212Z,14.27
2024-02-21T09:59:18.319Z,12.47
2024-02-21T10:01:45.953Z,10.93
2024-02-21T10:04:13.271Z,13.00
2024-02-21T10:06:40.641Z,13.37
2024-02-21T10:09:08.145Z,15.83
2024-02-21T10:11:38.283Z,12.83
2024-02-21T10:14:09.650Z,15.20
2024-02-21T10:16:38.519Z,13.33
2024-02-21T10:19:06.018Z,13.93
2024-02-21T10:21:33.061Z,14.83
2024-02-21T10:24:00.069Z,13.97
2024-02-21T10:26:26.861Z,13.80
2024-02-21T10:28:55.564Z,15.17
2024-02-21T10:31:28.741Z,13.53
2024-02-21T10:34:00.061Z,13.20
2024-02-21T10:36:27.753Z,13.93
2024-02-21T10:38:57.918Z,12.43
2024-02-21T10:41:25.988Z,13.03
2024-02-21T10:43:57.370Z,13.87
2024-02-21T10:46:26.172Z,12.50
2024-02-21T10:49:11.784Z,13.30
2024-02-21T10:51:45.193Z,13.10
2024-02-21T10:54:43.808Z,12.90
2024-02-21T10:57:13.752Z,13.13
2024-02-21T10:59:42.059Z,13.80
2024-02-21T11:02:09.377Z,13.53
2024-02-21T11:04:37.938Z,13.00
2024-02-21T11:07:10.567Z,12.70
2024-02-21T11:09:38.722Z,13.53
2024-02-21T11:12:07.406Z,12.33
2024-02-21T11:14:40.613Z,12.03
2024-02-21T11:17:28.332Z,14.53
2024-02-21T11:19:55.644Z,11.50
2024-02-21T11:22:26.204Z,13.13
2024-02-21T11:24:54.750Z,13.27
2024-02-21T11:27:25.976Z,11.93
2024-02-21T11:29:57.387Z,13.37
2024-02-21T11:32:25.888Z,13.00
2024-02-21T11:34:57.510Z,13.40
2024-02-21T11:37:28.434Z,12.83
2024-02-21T11:39:58.912Z,13.67
2024-02-21T11:42:30.197Z,13.43
2024-02-21T11:45:01.343Z,12.23
2024-02-21T11:47:30.391Z,13.30
2024-02-21T11:49:57.445Z,12.83
2024-02-21T11:52:26.919Z,13.20
2024-02-21T11:54:55.853Z,11.53
2024-02-21T11:57:23.031Z,13.40
2024-02-21T11:59:52.733Z,13.53
2024-02-21T12:02:21.011Z,14.83
2024-02-21T12:04:50.359Z,14.57
2024-02-21T12:07:19.097Z,15.40
2024-02-21T12:09:46.125Z,12.93
2024-02-21T12:12:13.237Z,12.90
2024-02-21T12:14:40.639Z,13.07
2024-02-21T12:17:08.190Z,12.20
2024-02-21T12:19:35.820Z,12.83
2024-02-21T12:22:07.075Z,12.53
2024-02-21T12:24:34.714Z,15.50
2024-02-21T12:27:04.736Z,12.63
2024-02-21T12:29:31.755Z,13.67
2024-02-21T12:31:58.834Z,15.87
2024-02-21T12:34:34.939Z,15.10
2024-02-21T12:37:14.137Z,12.83
2024-02-21T12:39:41.432Z,13.57
2024-02-21T12:42:08.339Z,12.27
2024-02-21T12:44:35.520Z,11.63
2024-02-21T12:47:02.691Z,11.13
2024-02-21T12:49:31.045Z,12.10
2024-02-21T12:51:58.143Z,12.43
2024-02-21T12:54:25.171Z,11.03
2024-02-21T12:56:52.066Z,12.17
2024-02-21T12:59:18.851Z,11.47
2024-02-21T13:01:46.245Z,10.60
2024-02-21T13:04:13.398Z,11.47
2024-02-21T13:06:40.346Z,10.43
2024-02-21T13:09:09.378Z,11.00
2024-02-21T13:11:36.660Z,10.67
2024-02-21T13:14:03.846Z,11.10
2024-02-21T13:16:30.908Z,10.00
2024-02-21T13:18:58.279Z,11.03
2024-02-21T13:21:25.225Z,11.90
2024-02-21T13:23:52.047Z,10.90
2024-02-21T13:26:18.994Z,10.00
2024-02-21T13:28:46.337Z,10.93
2024-02-21T13:31:13.578Z,10.80
2024-02-21T13:33:40.637Z,11.23
2024-02-21T13:36:07.922Z,9.93
2024-02-21T13:38:34.731Z,9.77
2024-02-21T13:41:02.033Z,10.40
2024-02-21T13:43:29.431Z,10.70
2024-02-21T13:46:01.374Z,9.40
2024-02-21T13:48:29.967Z,11.97
2024-02-21T13:50:57.212Z,8.70
2024-02-21T13:53:24.197Z,8.90
2024-02-21T13:55:51.306Z,9.17
2024-02-21T13:58:18.713Z,9.97
2024-02-21T14:00:45.743Z,8.50
2024-02-21T14:03:12.760Z,9.53
2024-02-21T14:05:43.400Z,8.10
2024-02-21T14:08:10.895Z,9.27
2024-02-21T14:10:38.604Z,8.47
2024-02-21T14:13:05.660Z,9.97
2024-02-21T14:15:32.632Z,8.83
2024-02-21T14:17:59.587Z,9.13
2024-02-21T14:20:26.652Z,7.93
2024-02-21T14:22:53.585Z,9.37
2024-02-21T14:25:20.530Z,7.90
2024-02-21T14:27:47.519Z,8.60
2024-02-21T14:30:14.435Z,8.70
2024-02-21T14:32:45.675Z,11.03
2024-02-21T14:35:12.761Z,8.60
2024-02-21T14:37:39.675Z,9.97
2024-02-21T14:40:07.109Z,8.47
2024-02-21T14:42:34.118Z,8.90
2024-02-21T14:45:05.674Z,7.93
2024-02-21T14:47:34.130Z,7.97
2024-02-21T14:50:01.280Z,7.60
2024-02-21T14:52:31.280Z,7.90
2024-02-21T14:54:58.123Z,7.40
2024-02-21T14:57:26.183Z,7.70
2024-02-21T14:59:57.674Z,7.43
2024-02-21T15:02:24.754Z,8.37
2024-02-21T15:04:52.830Z,8.63
2024-02-21T15:07:21.274Z,8.13
2024-02-21T15:09:48.164Z,8.37
2024-02-21T15:12:15.048Z,7.67
2024-02-21T15:14:41.892Z,8.40
2024-02-21T15:17:08.747Z,8.33
2024-02-21T15:19:40.350Z,9.63
2024-02-21T15:22:07.334Z,8.00
2024-02-21T15:24:34.941Z,8.37
2024-02-21T15:27:01.748Z,8.53
2024-02-21T15:29:29.074Z,8.23
2024-02-21T15:31:55.866Z,9.30
2024-02-21T15:34:23.082Z,9.57
2024-02-21T15:36:49.971Z,8.57
2024-02-21T15:39:16.756Z,8.07
2024-02-21T15:41:43.536Z,8.30
2024-02-21T15:44:10.476Z,7.37
2024-02-21T15:46:38.634Z,8.90
2024-02-21T15:49:05.539Z,9.17
2024-02-21T15:51:32.398Z,11.10
2024-02-21T15:54:02.265Z,12.47
2024-02-21T15:56:29.154Z,12.30
2024-02-21T15:58:56.605Z,13.50
2024-02-21T16:01:24.664Z,11.53
2024-02-21T16:03:52.911Z,10.63
2024-02-21T16:06:19.751Z,9.93
2024-02-21T16:08:48.304Z,9.37
2024-02-21T16:11:17.350Z,8.90
2024-02-21T16:13:46.987Z,9.63
2024-02-21T16:16:14.479Z,10.27
2024-02-21T16:18:41.713Z,10.57
2024-02-21T16:21:09.601Z,10.37
2024-02-21T16:23:36.489Z,9.70
2024-02-21T16:26:03.429Z,9.77
2024-02-21T16:28:30.780Z,10.50
2024-02-21T16:30:59.131Z,10.87
2024-02-21T16:33:26.319Z,10.53
2024-02-21T16:35:53.666Z,9.97
2024-02-21T16:38:20.836Z,8.77
2024-02-21T16:40:48.853Z,9.53
2024-02-21T16:43:15.686Z,8.97
2024-02-21T16:45:42.740Z,10.13
2024-02-21T16:48:10.217Z,8.73
2024-02-21T16:50:45.721Z,7.60
2024-02-21T16:53:21.902Z,9.33
2024-02-21T16:55:49.840Z,8.27
2024-02-21T16:58:17.225Z,8.90
2024-02-21T17:00:44.153Z,11.30
2024-02-21T17:03:11.694Z,10.13
2024-02-21T17:05:38.902Z,12.27
2024-02-21T17:08:10.377Z,26.90
2024-02-21T17:10:37.857Z,21.83
2024-02-21T17:13:06.244Z,26.50
2024-02-21T17:15:33.129Z,16.17
2024-02-21T17:18:00.178Z,11.53
2024-02-21T17:20:27.266Z,11.73
2024-02-21T17:22:54.427Z,10.50
2024-02-21T17:25:21.208Z,11.00
2024-02-21T17:27:49.198Z,11.10
2024-02-21T17:30:16.676Z,10.90
2024-02-21T17:32:43.538Z,11.07
2024-02-21T17:35:10.451Z,11.37
2024-02-21T17:37:37.410Z,12.83
2024-02-21T17:40:10.702Z,11.20
2024-02-21T17:42:37.969Z,10.03
2024-02-21T17:45:05.201Z,9.47
2024-02-21T17:47:32.476Z,9.57
2024-02-21T17:49:59.683Z,10.83
2024-02-21T17:52:28.526Z,10.80
2024-02-21T17:54:58.259Z,10.33
2024-02-21T17:57:25.132Z,11.60
2024-02-21T17:59:52.001Z,11.17
2024-02-21T18:02:21.593Z,11.67
2024-02-21T18:04:49.180Z,10.67
2024-02-21T18:07:16.401Z,11.77
2024-02-21T18:09:43.289Z,11.33
2024-02-21T18:12:10.408Z,13.10
2024-02-21T18:14:37.215Z,13.13
2024-02-21T18:17:04.301Z,11.93
2024-02-21T18:19:36.128Z,12.03
2024-02-21T18:22:03.312Z,12.83
2024-02-21T18:24:31.470Z,12.50
2024-02-21T18:26:58.439Z,13.50
2024-02-21T18:29:37.725Z,13.03
2024-02-21T18:32:09.820Z,12.67
2024-02-21T18:34:40.172Z,14.03
2024-02-21T18:37:07.259Z,14.73
2024-02-21T18:39:34.602Z,15.47
2024-02-21T18:42:01.441Z,15.53
2024-02-21T18:44:28.297Z,15.47
2024-02-21T18:46:55.352Z,13.90
2024-02-21T18:49:22.315Z,15.63
2024-02-21T18:51:49.216Z,13.87
2024-02-21T18:54:16.181Z,13.90
2024-02-21T18:56:47.063Z,14.80
2024-02-21T18:59:14.359Z,13.77
2024-02-21T19:01:41.258Z,15.17
2024-02-21T19:04:08.547Z,15.50
2024-02-21T19:06:35.577Z,14.77
2024-02-21T19:09:05.654Z,16.17
2024-02-21T19:11:33.054Z,15.13
2024-02-21T19:14:00.560Z,14.33
2024-02-21T19:16:29.940Z,16.27
2024-02-21T19:18:57.146Z,15.37
2024-02-21T19:21:24.541Z,16.20
2024-02-21T19:23:51.462Z,15.20
2024-02-21T19:26:18.269Z,16.50
2024-02-21T19:28:46.515Z,14.87
2024-02-21T19:31:13.822Z,14.53
2024-02-21T19:33:41.323Z,13.67
2024-02-21T19:36:10.480Z,14.63
2024-02-21T19:38:38.158Z,13.67
2024-02-21T19:41:07.928Z,14.77
2024-02-21T19:43:35.416Z,14.30
2024-02-21T19:46:02.992Z,14.67
2024-02-21T19:48:30.176Z,14.57
2024-02-21T19:50:58.026Z,15.40
2024-02-21T19:53:25.031Z,16.20
2024-02-21T19:55:52.599Z,14.30
2024-02-21T19:58:19.856Z,13.33
2024-02-21T20:00:46.788Z,14.70
2024-02-21T20:03:13.630Z,13.67
2024-02-21T20:05:44.031Z,14.33
2024-02-21T20:08:13.095Z,13.93
2024-02-21T20:10:41.192Z,13.97
2024-02-21T20:13:08.192Z,14.43
2024-02-21T20:15:35.026Z,13.37
2024-02-21T20:18:02.050Z,14.30
2024-02-21T20:20:29.022Z,13.87
2024-02-21T20:22:55.963Z,12.37
2024-02-21T20:25:22.884Z,15.53
2024-02-21T20:27:49.720Z,12.80
2024-02-21T20:30:16.702Z,12.43
2024-02-21T20:32:44.589Z,11.70
2024-02-21T20:35:12.220Z,11.63
2024-02-21T20:37:39.408Z,14.27
2024-02-21T20:40:09.964Z,13.23
2024-02-21T20:42:37.345Z,13.37
2024-02-21T20:45:04.662Z,13.53
2024-02-21T20:47:31.804Z,14.97
2024-02-21T20:49:59.957Z,15.43
2024-02-21T20:52:27.526Z,13.87
2024-02-21T20:54:54.414Z,13.53
2024-02-21T20:57:22.659Z,13.17
2024-02-21T20:59:50.190Z,14.57
2024-02-21T21:02:17.670Z,12.60
2024-02-21T21:04:44.593Z,13.13
2024-02-21T21:07:12.113Z,12.40
2024-02-21T21:09:40.538Z,13.10
2024-02-21T21:12:08.124Z,13.17
2024-02-21T21:14:35.839Z,15.23
2024-02-21T21:17:05.836Z,13.07
2024-02-21T21:19:33.372Z,13.43
2024-02-21T21:22:01.969Z,11.83
2024-02-21T21:24:30.251Z,11.27
2024-02-21T21:26:57.218Z,12.07
2024-02-21T21:29:24.175Z,11.63
2024-02-21T21:31:51.252Z,11.97
2024-02-21T21:34:18.836Z,12.23
2024-02-21T21:36:45.841Z,11.73
2024-02-21T21:39:17.313Z,11.57
2024-02-21T21:41:44.796Z,11.77
2024-02-21T21:44:12.624Z,12.67
2024-02-21T21:46:41.948Z,11.80
2024-02-21T21:49:09.272Z,13.93
2024-02-21T21:51:36.401Z,11.97
2024-02-21T21:54:05.125Z,11.33
2024-02-21T21:56:32.632Z,12.50
2024-02-21T21:58:59.607Z,11.37
2024-02-21T22:01:29.737Z,11.80
2024-02-21T22:03:56.833Z,11.87
2024-02-21T22:06:24.097Z,11.30
2024-02-21T22:08:52.994Z,12.43
2024-02-21T22:11:20.258Z,12.07
2024-02-21T22:13:48.046Z,11.07
2024-02-21T22:16:15.364Z,13.10
2024-02-21T22:18:43.622Z,13.17
2024-02-21T22:21:10.832Z,12.27
2024-02-21T22:23:40.329Z,13.93
2024-02-21T22:26:08.107Z,12.60
2024-02-21T22:28:35.398Z,11.70
2024-02-21T22:31:02.915Z,12.67
2024-02-21T22:33:30.019Z,12.33
2024-02-21T22:35:56.983Z,12.97
2024-02-21T22:38:24.269Z,12.10
2024-02-21T22:40:51.226Z,13.43
2024-02-21T22:43:18.372Z,14.00
2024-02-21T22:45:45.309Z,12.63
2024-02-21T22:48:12.477Z,14.03
2024-02-21T22:50:40.476Z,13.00
2024-02-21T22:53:07.654Z,12.57
2024-02-21T22:55:34.616Z,13.50
2024-02-21T22:58:01.846Z,13.80
2024-02-21T23:00:28.867Z,13.47
2024-02-21T23:02:55.894Z,14.03
2024-02-21T23:05:24.541Z,13.87
2024-02-21T23:07:53.517Z,14.27
2024-02-21T23:10:24.750Z,13.87
2024-02-21T23:12:52.080Z,13.90
2024-02-21T23:15:19.280Z,12.90
2024-02-21T23:17:46.160Z,14.53
2024-02-21T23:20:13.277Z,12.60
2024-02-21T23:22:40.241Z,13.23
2024-02-21T23:25:10.325Z,12.63
2024-02-21T23:27:37.458Z,13.80
2024-02-21T23:30:07.458Z,14.43
2024-02-21T23:32:34.274Z,12.43
2024-02-21T23:35:02.350Z,14.07
2024-02-21T23:37:30.417Z,15.27
2024-02-21T23:39:57.523Z,13.57
2024-02-21T23:42:24.687Z,13.33
2024-02-21T23:44:52.446Z,13.27
2024-02-21T23:47:19.459Z,14.07
2024-02-21T23:49:46.899Z,14.10
2024-02-21T23:52:15.036Z,14.50
2024-02-21T23:54:42.102Z,13.00
2024-02-21T23:57:09.262Z,13.27
2024-02-21T23:59:36.795Z,13.77
